CLB2 weather

Plattsville (Lubitz Flying Field)
Ontario, Canada

Public forecast

Using degrees Celsius for public forecast. Weather courtesy of forecast.io.

METAR (pilot weather report)

Closest report is Waterloo Airport, 11.9 nm (22.0 km) NE. Retrieved 2019/05/27 06:00 UTC (29 minutes ago):

CYKF 270600Z AUTO 32003KT 9SM CLR 10/09 A3003 RMK SLP172

TAF (pilot weather forecast)

Closest forecast is Waterloo Airport, 11.9 nm (22.0 km) NE. Retrieved 2019/05/27 02:39 UTC (4 hours ago):

TAF CYKF 270138Z 2702/2714 31006KT P6SM SKC FM270700 VRB03KT 6SM BR SKC PROB30 2707/2712 11/2SM BR FM271200 VRB03KT P6SM FEW050 RMK FCST BASED ON AUTO OBS. NXT FCST BY 270800Z